sensor_id;sensor_type;location;lat;lon;timestamp;pressure;altitude;pressure_sealevel;temperature;humidity
35307;BME280;21420;52.196;21.416;2023-03-23T00:01:49;99610.86;;;8.80;62.14
35307;BME280;21420;52.196;21.416;2023-03-23T00:04:16;99607.55;;;8.76;62.12
35307;BME280;21420;52.196;21.416;2023-03-23T00:06:42;99611.50;;;8.75;62.19
35307;BME280;21420;52.196;21.416;2023-03-23T00:09:12;99608.61;;;8.73;62.32
35307;BME280;21420;52.196;21.416;2023-03-23T00:11:41;99601.75;;;8.73;62.35
35307;BME280;21420;52.196;21.416;2023-03-23T00:14:09;99599.16;;;8.72;62.27
35307;BME280;21420;52.196;21.416;2023-03-23T00:16:40;99601.08;;;8.71;62.30
35307;BME280;21420;52.196;21.416;2023-03-23T00:19:09;99601.48;;;8.69;62.22
35307;BME280;21420;52.196;21.416;2023-03-23T00:21:39;99600.12;;;8.65;62.24
35307;BME280;21420;52.196;21.416;2023-03-23T00:24:24;99600.80;;;8.63;62.17
35307;BME280;21420;52.196;21.416;2023-03-23T00:26:50;99600.08;;;8.59;62.34
35307;BME280;21420;52.196;21.416;2023-03-23T00:29:20;99598.39;;;8.58;62.23
35307;BME280;21420;52.196;21.416;2023-03-23T00:31:49;99593.05;;;8.56;62.40
35307;BME280;21420;52.196;21.416;2023-03-23T00:34:17;99585.98;;;8.54;62.40
35307;BME280;21420;52.196;21.416;2023-03-23T00:36:46;99588.98;;;8.53;62.44
35307;BME280;21420;52.196;21.416;2023-03-23T00:39:12;99592.71;;;8.50;62.47
35307;BME280;21420;52.196;21.416;2023-03-23T00:41:42;99590.89;;;8.50;62.34
35307;BME280;21420;52.196;21.416;2023-03-23T00:44:10;99585.77;;;8.48;62.45
35307;BME280;21420;52.196;21.416;2023-03-23T00:46:35;99589.95;;;8.47;62.51
35307;BME280;21420;52.196;21.416;2023-03-23T00:49:14;99583.64;;;8.45;62.47
35307;BME280;21420;52.196;21.416;2023-03-23T00:51:41;99579.10;;;8.42;62.52
35307;BME280;21420;52.196;21.416;2023-03-23T00:54:09;99576.03;;;8.40;62.50
35307;BME280;21420;52.196;21.416;2023-03-23T00:56:35;99575.17;;;8.37;62.60
35307;BME280;21420;52.196;21.416;2023-03-23T00:59:02;99575.16;;;8.37;62.66
35307;BME280;21420;52.196;21.416;2023-03-23T01:01:29;99569.98;;;8.36;62.82
35307;BME280;21420;52.196;21.416;2023-03-23T01:03:58;99569.30;;;8.34;62.93
35307;BME280;21420;52.196;21.416;2023-03-23T01:06:37;99570.13;;;8.32;62.84
35307;BME280;21420;52.196;21.416;2023-03-23T01:09:06;99568.00;;;8.32;62.97
35307;BME280;21420;52.196;21.416;2023-03-23T01:11:32;99568.11;;;8.33;62.90
35307;BME280;21420;52.196;21.416;2023-03-23T01:14:00;99562.80;;;8.35;63.14
35307;BME280;21420;52.196;21.416;2023-03-23T01:16:27;99565.28;;;8.37;63.13
35307;BME280;21420;52.196;21.416;2023-03-23T01:18:53;99567.09;;;8.40;63.12
35307;BME280;21420;52.196;21.416;2023-03-23T01:21:19;99561.40;;;8.42;63.26
35307;BME280;21420;52.196;21.416;2023-03-23T01:23:46;99554.35;;;8.43;63.29
35307;BME280;21420;52.196;21.416;2023-03-23T01:26:16;99555.68;;;8.43;63.36
35307;BME280;21420;52.196;21.416;2023-03-23T01:28:42;99551.95;;;8.44;63.27
35307;BME280;21420;52.196;21.416;2023-03-23T01:31:13;99549.60;;;8.46;63.28
35307;BME280;21420;52.196;21.416;2023-03-23T01:33:40;99544.92;;;8.51;63.25
35307;BME280;21420;52.196;21.416;2023-03-23T01:36:18;99544.58;;;8.60;63.51
35307;BME280;21420;52.196;21.416;2023-03-23T01:38:46;99539.30;;;8.68;63.36
35307;BME280;21420;52.196;21.416;2023-03-23T01:41:13;99541.13;;;8.77;63.58
35307;BME280;21420;52.196;21.416;2023-03-23T01:44:00;99540.47;;;8.84;63.64
35307;BME280;21420;52.196;21.416;2023-03-23T01:46:49;99542.42;;;8.92;63.73
35307;BME280;21420;52.196;21.416;2023-03-23T01:49:22;99539.60;;;8.99;63.66
35307;BME280;21420;52.196;21.416;2023-03-23T01:51:53;99538.27;;;9.04;63.57
35307;BME280;21420;52.196;21.416;2023-03-23T01:54:23;99538.48;;;9.11;63.72
35307;BME280;21420;52.196;21.416;2023-03-23T01:57:12;99548.08;;;9.17;63.74
35307;BME280;21420;52.196;21.416;2023-03-23T01:59:43;99547.71;;;9.23;63.76
35307;BME280;21420;52.196;21.416;2023-03-23T02:02:25;99541.74;;;9.30;63.69
35307;BME280;21420;52.196;21.416;2023-03-23T02:04:55;99543.82;;;9.35;63.62
35307;BME280;21420;52.196;21.416;2023-03-23T02:07:25;99540.37;;;9.40;63.53
35307;BME280;21420;52.196;21.416;2023-03-23T02:09:52;99540.88;;;9.44;63.62
35307;BME280;21420;52.196;21.416;2023-03-23T02:12:18;99532.89;;;9.46;63.66
35307;BME280;21420;52.196;21.416;2023-03-23T02:14:44;99538.98;;;9.47;63.72
35307;BME280;21420;52.196;21.416;2023-03-23T02:20:42;99536.39;;;9.49;63.63
35307;BME280;21420;52.196;21.416;2023-03-23T02:33:49;99521.90;;;9.47;63.63
35307;BME280;21420;52.196;21.416;2023-03-23T02:36:25;99519.13;;;9.43;63.61
35307;BME280;21420;52.196;21.416;2023-03-23T02:39:00;99518.48;;;9.39;63.54
35307;BME280;21420;52.196;21.416;2023-03-23T02:41:38;99516.73;;;9.35;63.48
35307;BME280;21420;52.196;21.416;2023-03-23T02:44:07;99511.00;;;9.31;63.48
35307;BME280;21420;52.196;21.416;2023-03-23T02:46:35;99509.50;;;9.27;63.50
35307;BME280;21420;52.196;21.416;2023-03-23T02:49:03;99509.85;;;9.23;63.41
35307;BME280;21420;52.196;21.416;2023-03-23T02:51:32;99509.80;;;9.18;63.51
35307;BME280;21420;52.196;21.416;2023-03-23T02:53:59;99511.02;;;9.12;63.53
35307;BME280;21420;52.196;21.416;2023-03-23T02:56:26;99505.87;;;9.09;63.54
35307;BME280;21420;52.196;21.416;2023-03-23T02:58:55;99506.54;;;9.05;63.56
35307;BME280;21420;52.196;21.416;2023-03-23T03:04:14;99504.61;;;8.92;63.54
35307;BME280;21420;52.196;21.416;2023-03-23T03:07:23;99509.70;;;8.90;63.54
35307;BME280;21420;52.196;21.416;2023-03-23T03:12:40;99513.86;;;8.86;63.64
35307;BME280;21420;52.196;21.416;2023-03-23T03:20:35;99493.44;;;8.81;63.65
35307;BME280;21420;52.196;21.416;2023-03-23T03:23:03;99495.80;;;8.80;63.63
35307;BME280;21420;52.196;21.416;2023-03-23T03:25:33;99496.07;;;8.78;63.66
35307;BME280;21420;52.196;21.416;2023-03-23T03:28:01;99498.54;;;8.74;63.76
35307;BME280;21420;52.196;21.416;2023-03-23T03:30:40;99502.79;;;8.72;63.71
35307;BME280;21420;52.196;21.416;2023-03-23T03:33:10;99505.79;;;8.74;63.92
35307;BME280;21420;52.196;21.416;2023-03-23T03:35:37;99510.98;;;8.75;63.86
35307;BME280;21420;52.196;21.416;2023-03-23T03:38:08;99513.41;;;8.76;63.79
35307;BME280;21420;52.196;21.416;2023-03-23T03:40:35;99511.38;;;8.78;63.93
35307;BME280;21420;52.196;21.416;2023-03-23T03:43:01;99507.79;;;8.82;63.89
35307;BME280;21420;52.196;21.416;2023-03-23T03:45:27;99509.84;;;8.84;64.03
35307;BME280;21420;52.196;21.416;2023-03-23T03:47:54;99512.12;;;8.88;64.07
35307;BME280;21420;52.196;21.416;2023-03-23T03:50:21;99516.61;;;8.89;64.03
35307;BME280;21420;52.196;21.416;2023-03-23T03:52:47;99518.33;;;8.89;64.02
35307;BME280;21420;52.196;21.416;2023-03-23T03:55:12;99513.88;;;8.91;64.07
35307;BME280;21420;52.196;21.416;2023-03-23T03:57:40;99506.64;;;8.95;64.17
35307;BME280;21420;52.196;21.416;2023-03-23T04:00:26;99512.88;;;8.98;64.03
35307;BME280;21420;52.196;21.416;2023-03-23T04:02:51;99522.95;;;8.98;64.11
35307;BME280;21420;52.196;21.416;2023-03-23T04:05:53;99525.41;;;8.97;64.15
35307;BME280;21420;52.196;21.416;2023-03-23T04:08:24;99520.41;;;8.96;63.99
35307;BME280;21420;52.196;21.416;2023-03-23T04:10:52;99515.66;;;8.94;64.01
35307;BME280;21420;52.196;21.416;2023-03-23T04:13:19;99514.12;;;8.90;63.99
35307;BME280;21420;52.196;21.416;2023-03-23T04:16:10;99506.23;;;8.81;63.93
35307;BME280;21420;52.196;21.416;2023-03-23T04:18:37;99504.21;;;8.73;63.87
35307;BME280;21420;52.196;21.416;2023-03-23T04:21:05;99503.75;;;8.68;63.91
35307;BME280;21420;52.196;21.416;2023-03-23T04:23:32;99501.27;;;8.64;64.04
35307;BME280;21420;52.196;21.416;2023-03-23T04:26:02;99494.02;;;8.58;64.02
35307;BME280;21420;52.196;21.416;2023-03-23T04:28:34;99491.13;;;8.51;63.98
35307;BME280;21420;52.196;21.416;2023-03-23T04:31:18;99486.31;;;8.46;63.97
35307;BME280;21420;52.196;21.416;2023-03-23T04:33:46;99484.57;;;8.43;64.02
35307;BME280;21420;52.196;21.416;2023-03-23T04:36:13;99484.80;;;8.39;64.00
35307;BME280;21420;52.196;21.416;2023-03-23T04:38:50;99485.35;;;8.36;64.05
35307;BME280;21420;52.196;21.416;2023-03-23T04:41:22;99483.54;;;8.32;64.03
35307;BME280;21420;52.196;21.416;2023-03-23T04:44:00;99489.92;;;8.30;64.13
35307;BME280;21420;52.196;21.416;2023-03-23T04:46:44;99492.88;;;8.27;64.11
35307;BME280;21420;52.196;21.416;2023-03-23T04:49:16;99494.31;;;8.26;64.25
35307;BME280;21420;52.196;21.416;2023-03-23T04:51:48;99492.97;;;8.25;64.23
35307;BME280;21420;52.196;21.416;2023-03-23T04:54:26;99495.38;;;8.25;64.19
35307;BME280;21420;52.196;21.416;2023-03-23T04:56:55;99492.70;;;8.26;64.31
35307;BME280;21420;52.196;21.416;2023-03-23T04:59:23;99489.75;;;8.27;64.34
35307;BME280;21420;52.196;21.416;2023-03-23T05:02:03;99492.54;;;8.27;64.36
35307;BME280;21420;52.196;21.416;2023-03-23T05:04:29;99493.42;;;8.25;64.38
35307;BME280;21420;52.196;21.416;2023-03-23T05:07:03;99492.73;;;8.25;64.34
35307;BME280;21420;52.196;21.416;2023-03-23T05:09:31;99490.48;;;8.25;64.34
35307;BME280;21420;52.196;21.416;2023-03-23T05:11:56;99491.81;;;8.26;64.42
35307;BME280;21420;52.196;21.416;2023-03-23T05:14:25;99485.36;;;8.26;64.47
35307;BME280;21420;52.196;21.416;2023-03-23T05:17:00;99477.41;;;8.26;64.45
35307;BME280;21420;52.196;21.416;2023-03-23T05:19:26;99479.02;;;8.27;64.41
35307;BME280;21420;52.196;21.416;2023-03-23T05:21:59;99481.33;;;8.29;64.49
35307;BME280;21420;52.196;21.416;2023-03-23T05:24:40;99490.28;;;8.31;64.53
35307;BME280;21420;52.196;21.416;2023-03-23T05:27:09;99489.34;;;8.33;64.58
35307;BME280;21420;52.196;21.416;2023-03-23T05:29:37;99486.19;;;8.38;64.59
35307;BME280;21420;52.196;21.416;2023-03-23T05:32:07;99485.23;;;8.42;64.62
35307;BME280;21420;52.196;21.416;2023-03-23T05:34:35;99485.55;;;8.44;64.66
35307;BME280;21420;52.196;21.416;2023-03-23T05:37:02;99487.33;;;8.48;64.71
35307;BME280;21420;52.196;21.416;2023-03-23T05:39:55;99490.98;;;8.56;64.62
35307;BME280;21420;52.196;21.416;2023-03-23T05:42:59;99492.41;;;8.65;64.81
35307;BME280;21420;52.196;21.416;2023-03-23T05:45:40;99489.55;;;8.73;64.82
35307;BME280;21420;52.196;21.416;2023-03-23T05:48:07;99484.95;;;8.84;64.86
35307;BME280;21420;52.196;21.416;2023-03-23T05:50:32;99483.45;;;8.94;64.93
35307;BME280;21420;52.196;21.416;2023-03-23T05:52:58;99479.30;;;9.07;64.98
35307;BME280;21420;52.196;21.416;2023-03-23T05:55:24;99479.48;;;9.19;64.94
35307;BME280;21420;52.196;21.416;2023-03-23T05:57:58;99485.42;;;9.32;64.99
35307;BME280;21420;52.196;21.416;2023-03-23T06:00:28;99485.40;;;9.46;65.07
35307;BME280;21420;52.196;21.416;2023-03-23T06:03:02;99487.48;;;9.59;65.11
35307;BME280;21420;52.196;21.416;2023-03-23T06:05:58;99490.96;;;9.73;65.10
35307;BME280;21420;52.196;21.416;2023-03-23T06:08:30;99486.27;;;9.85;65.01
35307;BME280;21420;52.196;21.416;2023-03-23T06:10:56;99491.91;;;9.99;65.21
35307;BME280;21420;52.196;21.416;2023-03-23T06:13:23;99491.71;;;10.10;65.10
35307;BME280;21420;52.196;21.416;2023-03-23T06:15:55;99494.77;;;10.20;65.11
35307;BME280;21420;52.196;21.416;2023-03-23T06:18:39;99498.46;;;10.30;65.15
35307;BME280;21420;52.196;21.416;2023-03-23T06:21:32;99498.11;;;10.38;65.09
35307;BME280;21420;52.196;21.416;2023-03-23T06:24:03;99495.38;;;10.49;65.14
35307;BME280;21420;52.196;21.416;2023-03-23T06:26:37;99498.04;;;10.56;64.94
35307;BME280;21420;52.196;21.416;2023-03-23T06:29:07;99496.59;;;10.60;64.96
35307;BME280;21420;52.196;21.416;2023-03-23T06:31:41;99494.96;;;10.68;64.96
35307;BME280;21420;52.196;21.416;2023-03-23T06:34:08;99491.87;;;10.74;65.05
35307;BME280;21420;52.196;21.416;2023-03-23T06:36:54;99495.34;;;10.78;64.96
35307;BME280;21420;52.196;21.416;2023-03-23T06:39:42;99496.36;;;10.85;64.75
35307;BME280;21420;52.196;21.416;2023-03-23T06:42:17;99504.32;;;10.93;64.71
35307;BME280;21420;52.196;21.416;2023-03-23T06:44:47;99504.63;;;11.00;64.61
35307;BME280;21420;52.196;21.416;2023-03-23T06:47:13;99511.30;;;11.09;64.68
35307;BME280;21420;52.196;21.416;2023-03-23T06:49:45;99512.36;;;11.19;64.89
35307;BME280;21420;52.196;21.416;2023-03-23T06:52:19;99515.59;;;11.35;64.90
35307;BME280;21420;52.196;21.416;2023-03-23T06:54:45;99516.13;;;11.48;64.84
35307;BME280;21420;52.196;21.416;2023-03-23T06:57:11;99518.52;;;11.58;64.56
35307;BME280;21420;52.196;21.416;2023-03-23T06:59:37;99517.28;;;11.72;64.48
35307;BME280;21420;52.196;21.416;2023-03-23T07:02:03;99518.30;;;11.87;64.63
35307;BME280;21420;52.196;21.416;2023-03-23T07:04:30;99524.05;;;12.18;64.70
35307;BME280;21420;52.196;21.416;2023-03-23T07:07:07;99521.08;;;12.87;65.41
35307;BME280;21420;52.196;21.416;2023-03-23T07:09:38;99517.08;;;13.66;65.70
35307;BME280;21420;52.196;21.416;2023-03-23T07:12:05;99516.44;;;14.32;65.36
35307;BME280;21420;52.196;21.416;2023-03-23T07:14:36;99519.33;;;14.86;64.95
35307;BME280;21420;52.196;21.416;2023-03-23T07:17:03;99517.77;;;15.48;64.70
35307;BME280;21420;52.196;21.416;2023-03-23T07:19:31;99516.79;;;16.27;64.87
35307;BME280;21420;52.196;21.416;2023-03-23T07:21:57;99520.00;;;16.67;64.19
35307;BME280;21420;52.196;21.416;2023-03-23T07:24:24;99517.52;;;16.87;63.65
35307;BME280;21420;52.196;21.416;2023-03-23T07:27:03;99511.30;;;17.09;63.24
35307;BME280;21420;52.196;21.416;2023-03-23T07:29:29;99510.06;;;17.24;62.77
35307;BME280;21420;52.196;21.416;2023-03-23T07:32:05;99511.69;;;17.30;62.59
35307;BME280;21420;52.196;21.416;2023-03-23T07:34:32;99506.06;;;17.47;62.57
35307;BME280;21420;52.196;21.416;2023-03-23T07:37:12;99505.65;;;17.91;62.68
35307;BME280;21420;52.196;21.416;2023-03-23T07:39:45;99505.49;;;18.48;62.52
35307;BME280;21420;52.196;21.416;2023-03-23T07:42:11;99506.95;;;18.79;62.14
35307;BME280;21420;52.196;21.416;2023-03-23T07:44:41;99509.04;;;19.26;62.12
35307;BME280;21420;52.196;21.416;2023-03-23T07:47:09;99509.52;;;19.78;62.04
35307;BME280;21420;52.196;21.416;2023-03-23T07:49:35;99510.75;;;20.22;61.61
35307;BME280;21420;52.196;21.416;2023-03-23T07:52:12;99506.88;;;21.01;61.92
35307;BME280;21420;52.196;21.416;2023-03-23T07:54:39;99507.14;;;22.00;61.83
35307;BME280;21420;52.196;21.416;2023-03-23T07:57:17;99512.16;;;22.43;60.64
35307;BME280;21420;52.196;21.416;2023-03-23T07:59:47;99517.36;;;22.26;59.74
35307;BME280;21420;52.196;21.416;2023-03-23T08:02:13;99519.81;;;22.09;59.14
35307;BME280;21420;52.196;21.416;2023-03-23T08:04:51;99520.81;;;22.04;59.13
35307;BME280;21420;52.196;21.416;2023-03-23T08:07:37;99517.73;;;21.99;58.77
35307;BME280;21420;52.196;21.416;2023-03-23T08:10:22;99517.65;;;21.97;58.47
35307;BME280;21420;52.196;21.416;2023-03-23T08:13:07;99517.14;;;22.31;59.10
35307;BME280;21420;52.196;21.416;2023-03-23T08:16:07;99521.73;;;23.36;59.36
35307;BME280;21420;52.196;21.416;2023-03-23T08:19:06;99513.70;;;24.18;58.54
35307;BME280;21420;52.196;21.416;2023-03-23T08:21:44;99504.35;;;24.96;58.18
35307;BME280;21420;52.196;21.416;2023-03-23T08:24:37;99504.64;;;25.63;57.55
35307;BME280;21420;52.196;21.416;2023-03-23T08:27:24;99504.77;;;25.32;55.93
35307;BME280;21420;52.196;21.416;2023-03-23T08:30:07;99500.75;;;25.00;55.39
35307;BME280;21420;52.196;21.416;2023-03-23T08:33:02;99490.47;;;24.18;54.71
35307;BME280;21420;52.196;21.416;2023-03-23T08:35:55;99484.91;;;23.35;54.69
35307;BME280;21420;52.196;21.416;2023-03-23T08:38:51;99477.61;;;22.66;54.92
35307;BME280;21420;52.196;21.416;2023-03-23T08:41:29;99478.39;;;22.39;55.16
35307;BME280;21420;52.196;21.416;2023-03-23T08:44:03;99473.58;;;22.56;55.66
35307;BME280;21420;52.196;21.416;2023-03-23T08:46:48;99471.42;;;23.59;56.52
35307;BME280;21420;52.196;21.416;2023-03-23T08:49:25;99472.26;;;24.73;56.51
35307;BME280;21420;52.196;21.416;2023-03-23T08:52:29;99470.65;;;25.13;55.15
35307;BME280;21420;52.196;21.416;2023-03-23T08:55:16;99468.92;;;25.49;55.31
35307;BME280;21420;52.196;21.416;2023-03-23T08:57:53;99463.84;;;26.29;55.41
35307;BME280;21420;52.196;21.416;2023-03-23T09:00:45;99456.20;;;27.32;55.30
35307;BME280;21420;52.196;21.416;2023-03-23T09:03:38;99459.48;;;28.11;54.58
35307;BME280;21420;52.196;21.416;2023-03-23T09:06:28;99465.16;;;28.40;53.05
35307;BME280;21420;52.196;21.416;2023-03-23T09:08:54;99460.66;;;28.15;52.68
35307;BME280;21420;52.196;21.416;2023-03-23T09:11:21;99456.91;;;27.42;51.59
35307;BME280;21420;52.196;21.416;2023-03-23T09:13:47;99466.19;;;26.26;50.62
35307;BME280;21420;52.196;21.416;2023-03-23T09:16:13;99467.20;;;25.17;50.99
35307;BME280;21420;52.196;21.416;2023-03-23T09:18:39;99473.06;;;24.34;50.95
35307;BME280;21420;52.196;21.416;2023-03-23T09:21:06;99475.25;;;23.67;51.39
35307;BME280;21420;52.196;21.416;2023-03-23T09:23:32;99475.63;;;23.03;51.14
35307;BME280;21420;52.196;21.416;2023-03-23T09:26:00;99465.84;;;22.25;51.20
35307;BME280;21420;52.196;21.416;2023-03-23T09:28:27;99463.16;;;21.64;51.40
35307;BME280;21420;52.196;21.416;2023-03-23T09:30:55;99460.88;;;21.15;51.72
35307;BME280;21420;52.196;21.416;2023-03-23T09:33:23;99467.09;;;20.80;52.03
35307;BME280;21420;52.196;21.416;2023-03-23T09:35:49;99465.33;;;20.46;51.94
35307;BME280;21420;52.196;21.416;2023-03-23T09:38:15;99468.05;;;19.98;51.86
35307;BME280;21420;52.196;21.416;2023-03-23T09:41:03;99465.41;;;19.56;51.93
35307;BME280;21420;52.196;21.416;2023-03-23T09:48:53;99464.52;;;18.61;52.35
35307;BME280;21420;52.196;21.416;2023-03-23T09:56:49;99453.33;;;17.96;52.51
35307;BME280;21420;52.196;21.416;2023-03-23T09:59:23;99444.73;;;17.82;52.84
35307;BME280;21420;52.196;21.416;2023-03-23T10:01:53;99447.70;;;17.74;52.86
35307;BME280;21420;52.196;21.416;2023-03-23T10:04:52;99446.05;;;17.72;53.12
35307;BME280;21420;52.196;21.416;2023-03-23T10:07:22;99441.42;;;17.81;53.25
35307;BME280;21420;52.196;21.416;2023-03-23T10:09:52;99436.00;;;17.88;53.43
35307;BME280;21420;52.196;21.416;2023-03-23T10:12:25;99441.63;;;17.96;53.43
35307;BME280;21420;52.196;21.416;2023-03-23T10:17:58;99427.95;;;18.02;53.29
35307;BME280;21420;52.196;21.416;2023-03-23T10:26:09;99438.65;;;18.58;53.49
35307;BME280;21420;52.196;21.416;2023-03-23T10:28:44;99436.64;;;18.68;53.25
35307;BME280;21420;52.196;21.416;2023-03-23T10:31:20;99439.30;;;18.78;53.35
35307;BME280;21420;52.196;21.416;2023-03-23T10:33:50;99432.86;;;19.17;53.76
35307;BME280;21420;52.196;21.416;2023-03-23T10:36:22;99427.97;;;20.01;54.42
35307;BME280;21420;52.196;21.416;2023-03-23T10:41:31;99412.97;;;22.44;54.58
35307;BME280;21420;52.196;21.416;2023-03-23T10:43:57;99409.67;;;23.35;54.20
35307;BME280;21420;52.196;21.416;2023-03-23T10:49:15;99409.09;;;24.55;52.80
35307;BME280;21420;52.196;21.416;2023-03-23T10:51:50;99407.05;;;24.49;51.74
35307;BME280;21420;52.196;21.416;2023-03-23T10:54:36;99413.06;;;24.23;51.18
35307;BME280;21420;52.196;21.416;2023-03-23T10:57:33;99410.30;;;24.15;51.31
35307;BME280;21420;52.196;21.416;2023-03-23T11:00:07;99406.19;;;24.37;51.23
35307;BME280;21420;52.196;21.416;2023-03-23T11:02:41;99404.38;;;24.43;51.11
35307;BME280;21420;52.196;21.416;2023-03-23T11:05:20;99409.98;;;24.45;50.92
35307;BME280;21420;52.196;21.416;2023-03-23T11:08:16;99405.06;;;24.02;50.09
35307;BME280;21420;52.196;21.416;2023-03-23T11:10:49;99392.76;;;23.48;49.87
35307;BME280;21420;52.196;21.416;2023-03-23T11:13:17;99396.00;;;23.31;50.26
35307;BME280;21420;52.196;21.416;2023-03-23T11:15:46;99403.33;;;23.29;50.15
35307;BME280;21420;52.196;21.416;2023-03-23T11:18:18;99399.63;;;23.07;49.90
35307;BME280;21420;52.196;21.416;2023-03-23T11:20:49;99393.61;;;22.91;49.94
35307;BME280;21420;52.196;21.416;2023-03-23T11:23:24;99392.60;;;22.70;49.74
35307;BME280;21420;52.196;21.416;2023-03-23T11:28:55;99384.15;;;22.98;50.32
35307;BME280;21420;52.196;21.416;2023-03-23T11:31:28;99385.33;;;23.48;50.75
35307;BME280;21420;52.196;21.416;2023-03-23T11:36:33;99373.71;;;24.33;50.72
35307;BME280;21420;52.196;21.416;2023-03-23T11:38:59;99376.73;;;24.46;49.81
35307;BME280;21420;52.196;21.416;2023-03-23T11:41:32;99373.98;;;24.72;50.10
35307;BME280;21420;52.196;21.416;2023-03-23T11:44:09;99375.17;;;25.19;50.14
35307;BME280;21420;52.196;21.416;2023-03-23T11:49:25;99362.77;;;25.44;49.33
35307;BME280;21420;52.196;21.416;2023-03-23T11:52:58;99370.15;;;25.18;48.64
35307;BME280;21420;52.196;21.416;2023-03-23T11:55:17;99361.52;;;24.70;47.96
35307;BME280;21420;52.196;21.416;2023-03-23T11:57:44;99355.20;;;24.66;48.55
35307;BME280;21420;52.196;21.416;2023-03-23T12:00:15;99353.03;;;24.96;48.63
35307;BME280;21420;52.196;21.416;2023-03-23T12:03:03;99346.38;;;25.10;48.81
35307;BME280;21420;52.196;21.416;2023-03-23T12:06:11;99348.77;;;25.49;48.60
35307;BME280;21420;52.196;21.416;2023-03-23T12:16:42;99303.33;;;26.47;47.82
35307;BME280;21420;52.196;21.416;2023-03-23T12:22:12;99301.26;;;26.68;47.48
35307;BME280;21420;52.196;21.416;2023-03-23T12:28:40;99302.93;;;27.09;47.66
35307;BME280;21420;52.196;21.416;2023-03-23T12:37:35;99300.93;;;27.04;45.99
35307;BME280;21420;52.196;21.416;2023-03-23T12:48:28;99287.89;;;24.24;45.81
35307;BME280;21420;52.196;21.416;2023-03-23T12:53:26;99295.84;;;24.42;46.12
35307;BME280;21420;52.196;21.416;2023-03-23T12:58:44;99281.30;;;24.06;45.59
35307;BME280;21420;52.196;21.416;2023-03-23T13:01:13;99287.63;;;23.70;45.52
35307;BME280;21420;52.196;21.416;2023-03-23T13:06:37;99278.89;;;23.11;45.44
35307;BME280;21420;52.196;21.416;2023-03-23T13:09:20;99279.61;;;22.74;45.40
35307;BME280;21420;52.196;21.416;2023-03-23T13:11:48;99284.85;;;22.38;45.55
35307;BME280;21420;52.196;21.416;2023-03-23T13:22:23;99293.16;;;21.06;45.74
35307;BME280;21420;52.196;21.416;2023-03-23T13:24:55;99283.96;;;20.80;45.84
35307;BME280;21420;52.196;21.416;2023-03-23T13:27:26;99282.86;;;20.58;46.01
35307;BME280;21420;52.196;21.416;2023-03-23T13:29:54;99281.30;;;20.42;46.08
35307;BME280;21420;52.196;21.416;2023-03-23T13:32:22;99275.45;;;20.24;46.23
35307;BME280;21420;52.196;21.416;2023-03-23T13:34:54;99276.03;;;20.07;46.24
35307;BME280;21420;52.196;21.416;2023-03-23T13:37:25;99278.60;;;19.89;46.32
35307;BME280;21420;52.196;21.416;2023-03-23T13:39:54;99277.88;;;19.77;46.51
35307;BME280;21420;52.196;21.416;2023-03-23T13:42:28;99269.39;;;19.66;46.44
35307;BME280;21420;52.196;21.416;2023-03-23T13:47:41;99274.56;;;19.42;46.66
35307;BME280;21420;52.196;21.416;2023-03-23T14:05:48;99267.77;;;18.90;46.92
35307;BME280;21420;52.196;21.416;2023-03-23T14:11:00;99263.52;;;18.78;47.23
35307;BME280;21420;52.196;21.416;2023-03-23T14:13:42;99257.71;;;18.72;47.07
35307;BME280;21420;52.196;21.416;2023-03-23T14:18:47;99260.67;;;18.59;47.05
35307;BME280;21420;52.196;21.416;2023-03-23T14:21:17;99261.00;;;18.53;47.27
35307;BME280;21420;52.196;21.416;2023-03-23T14:23:46;99261.27;;;18.49;47.37
35307;BME280;21420;52.196;21.416;2023-03-23T14:26:17;99263.50;;;18.44;47.33
35307;BME280;21420;52.196;21.416;2023-03-23T14:28:49;99266.55;;;18.39;47.29
35307;BME280;21420;52.196;21.416;2023-03-23T14:31:26;99266.69;;;18.35;47.35
35307;BME280;21420;52.196;21.416;2023-03-23T14:33:54;99265.84;;;18.27;47.37
35307;BME280;21420;52.196;21.416;2023-03-23T14:36:27;99272.31;;;18.23;47.37
35307;BME280;21420;52.196;21.416;2023-03-23T14:39:04;99274.23;;;18.16;47.50
35307;BME280;21420;52.196;21.416;2023-03-23T14:41:35;99267.55;;;18.10;47.53
35307;BME280;21420;52.196;21.416;2023-03-23T14:44:03;99270.09;;;18.03;47.47
35307;BME280;21420;52.196;21.416;2023-03-23T14:46:31;99283.14;;;17.96;47.30
35307;BME280;21420;52.196;21.416;2023-03-23T14:49:01;99287.05;;;17.86;47.44
35307;BME280;21420;52.196;21.416;2023-03-23T14:51:27;99284.15;;;17.80;47.60
35307;BME280;21420;52.196;21.416;2023-03-23T14:53:53;99288.16;;;17.74;47.66
35307;BME280;21420;52.196;21.416;2023-03-23T14:56:21;99287.66;;;17.69;47.71
35307;BME280;21420;52.196;21.416;2023-03-23T14:58:50;99296.58;;;17.63;47.79
35307;BME280;21420;52.196;21.416;2023-03-23T15:01:19;99311.58;;;17.57;47.98
35307;BME280;21420;52.196;21.416;2023-03-23T15:03:53;99305.77;;;17.53;47.95
35307;BME280;21420;52.196;21.416;2023-03-23T15:06:23;99299.90;;;17.45;48.02
35307;BME280;21420;52.196;21.416;2023-03-23T15:08:55;99304.39;;;17.38;48.05
35307;BME280;21420;52.196;21.416;2023-03-23T15:11:28;99314.85;;;17.33;47.91
35307;BME280;21420;52.196;21.416;2023-03-23T15:13:57;99314.90;;;17.27;48.20
35307;BME280;21420;52.196;21.416;2023-03-23T15:16:30;99314.81;;;17.19;48.31
35307;BME280;21420;52.196;21.416;2023-03-23T15:19:13;99303.98;;;17.10;47.98
35307;BME280;21420;52.196;21.416;2023-03-23T15:21:53;99310.98;;;17.00;48.13
35307;BME280;21420;52.196;21.416;2023-03-23T15:24:40;99322.09;;;16.93;48.45
35307;BME280;21420;52.196;21.416;2023-03-23T15:27:29;99325.75;;;16.88;48.33
35307;BME280;21420;52.196;21.416;2023-03-23T15:29:57;99327.83;;;16.81;48.47
35307;BME280;21420;52.196;21.416;2023-03-23T15:32:26;99334.17;;;16.72;48.39
35307;BME280;21420;52.196;21.416;2023-03-23T15:34:53;99332.71;;;16.65;48.47